Time;durP1;ratioP1;P1;durP2;ratioP2;P2;SDS_P1;SDS_P2;PMS_P1;PMS_P2;Temp;Humidity;BMP_temperature;BMP_pressure;BME280_temperature;BME280_humidity;BME280_pressure;Samples;Min_cycle;Max_cycle;Signal;HPM_P1;HPM_P2
2023/11/26 00:00:44;;;;;;;;;;;;;;;7.09;nan;100846.09;5041928;28;19925;-83
2023/11/26 00:03:10;;;;;;;;;;;;;;;7.08;nan;100855.13;5039594;28;19928;-83
2023/11/26 00:05:35;;;;;;;;;;;;;;;7.07;nan;100854.31;5045375;28;20039;-83
2023/11/26 00:08:00;;;;;;;;;;;;;;;7.00;nan;100858.88;5044259;28;20277;-83
2023/11/26 00:10:26;;;;;;;;;;;;;;;6.94;nan;100852.59;5036415;28;19932;-83
2023/11/26 00:12:52;;;;;;;;;;;;;;;6.93;nan;100861.63;5040684;28;20304;-83
2023/11/26 00:15:17;;;;;;;;;;;;;;;6.93;nan;100864.28;5040179;28;19921;-83
2023/11/26 00:17:44;;;;;;;;;;;;;;;6.94;nan;100865.91;5041220;28;19920;-83
2023/11/26 00:20:10;;;;;;;;;;;;;;;6.94;nan;100868.59;5041384;28;19916;-83
2023/11/26 00:22:35;;;;;;;;;;;;;;;6.95;nan;100875.53;5041086;28;20110;-83
2023/11/26 00:25:00;;;;;;;;;;;;;;;6.96;nan;100877.16;5043911;28;20003;-83
2023/11/26 00:27:26;;;;;;;;;;;;;;;6.96;nan;100876.34;5040889;28;19921;-83
2023/11/26 00:29:52;;;;;;;;;;;;;;;6.92;nan;100872.50;5045584;28;20316;-84
2023/11/26 00:32:17;;;;;;;;;;;;;;;6.88;nan;100887.31;5042810;28;19920;-83
2023/11/26 00:34:43;;;;;;;;;;;;;;;6.86;nan;100884.88;5047408;28;19923;-83
2023/11/26 00:37:08;;;;;;;;;;;;;;;6.80;nan;100895.56;5042523;28;19927;-83
2023/11/26 00:39:33;;;;;;;;;;;;;;;6.80;nan;100891.06;5039118;28;20007;-83
2023/11/26 00:41:59;;;;;;;;;;;;;;;6.80;nan;100891.06;5040153;28;19962;-83
2023/11/26 00:44:25;;;;;;;;;;;;;;;6.85;nan;100893.91;5037396;28;20026;-83
2023/11/26 00:46:55;;;;;;;;;;;;;;;6.88;nan;100901.44;5044640;28;19928;-83
2023/11/26 00:49:21;;;;;;;;;;;;;;;6.90;nan;100901.22;5041070;28;19920;-83
2023/11/26 00:51:46;;;;;;;;;;;;;;;6.89;nan;100897.75;5039108;28;19928;-83
2023/11/26 00:54:12;;;;;;;;;;;;;;;6.91;nan;100909.00;5044855;28;19920;-83
2023/11/26 00:56:37;;;;;;;;;;;;;;;6.90;nan;100907.34;5043142;28;19921;-83
2023/11/26 00:59:02;;;;;;;;;;;;;;;6.90;nan;100920.69;5040426;28;19924;-83
2023/11/26 01:01:28;;;;;;;;;;;;;;;6.86;nan;100906.19;5040134;28;19917;-83
2023/11/26 01:03:54;;;;;;;;;;;;;;;6.86;nan;100916.81;5037726;28;19920;-83
2023/11/26 01:06:19;;;;;;;;;;;;;;;6.85;nan;100917.88;5039715;28;20044;-85
2023/11/26 01:08:44;;;;;;;;;;;;;;;6.85;nan;100927.69;5042792;28;20011;-83
2023/11/26 01:11:13;;;;;;;;;;;;;;;6.81;nan;100924.63;5040492;28;20369;-83
2023/11/26 01:13:39;;;;;;;;;;;;;;;6.82;nan;100926.28;5041774;28;19921;-83
2023/11/26 01:16:05;;;;;;;;;;;;;;;6.81;nan;100929.97;5038981;28;20029;-83
2023/11/26 01:18:30;;;;;;;;;;;;;;;6.79;nan;100929.38;5039014;28;19984;-83
2023/11/26 01:20:55;;;;;;;;;;;;;;;6.81;nan;100932.63;5039034;28;20082;-83
2023/11/26 01:23:21;;;;;;;;;;;;;;;6.80;nan;100944.31;5039203;28;19921;-83
2023/11/26 01:25:46;;;;;;;;;;;;;;;6.81;nan;100942.47;5040217;28;19925;-83
2023/11/26 01:28:12;;;;;;;;;;;;;;;6.84;nan;100948.19;5034700;28;19928;-83
2023/11/26 01:30:37;;;;;;;;;;;;;;;6.85;nan;100952.50;5041242;28;19932;-83
2023/11/26 01:33:03;;;;;;;;;;;;;;;6.84;nan;100944.72;5042968;28;20457;-83
2023/11/26 01:35:28;;;;;;;;;;;;;;;6.82;nan;100955.59;5037072;28;20470;-83
2023/11/26 01:37:54;;;;;;;;;;;;;;;6.77;nan;100943.94;5035167;28;20068;-83
2023/11/26 01:40:19;;;;;;;;;;;;;;;6.78;nan;100946.38;5039811;28;19956;-83
2023/11/26 01:42:44;;;;;;;;;;;;;;;6.79;nan;100948.00;5042603;28;19979;-83
2023/11/26 01:45:13;;;;;;;;;;;;;;;6.79;nan;100945.34;5035597;28;19952;-83
2023/11/26 01:47:56;;;;;;;;;;;;;;;6.76;nan;100945.78;5039678;28;19979;-83
2023/11/26 01:50:23;;;;;;;;;;;;;;;6.76;nan;100947.63;5041950;28;20419;-83
2023/11/26 01:52:49;;;;;;;;;;;;;;;6.77;nan;100955.41;5036521;28;19920;-83
2023/11/26 01:55:16;;;;;;;;;;;;;;;6.78;nan;100957.03;5040307;28;20614;-83
2023/11/26 01:57:42;;;;;;;;;;;;;;;6.77;nan;100963.41;5039884;28;19921;-83
2023/11/26 02:00:08;;;;;;;;;;;;;;;6.74;nan;100963.84;5042629;28;20074;-83
2023/11/26 02:02:34;;;;;;;;;;;;;;;6.73;nan;100961.41;5039093;28;19920;-83
2023/11/26 02:04:59;;;;;;;;;;;;;;;6.73;nan;100962.22;5039838;28;19925;-83
2023/11/26 02:07:25;;;;;;;;;;;;;;;6.74;nan;100963.03;5042713;28;20446;-83
2023/11/26 02:09:50;;;;;;;;;;;;;;;6.76;nan;100971.59;5044178;28;19932;-84
2023/11/26 02:12:15;;;;;;;;;;;;;;;6.76;nan;100964.44;5046115;28;20448;-83
2023/11/26 02:14:46;;;;;;;;;;;;;;;6.77;nan;100960.72;5043903;28;20100;-83
2023/11/26 02:17:11;;;;;;;;;;;;;;;6.79;nan;100968.50;5043658;28;19916;-83
2023/11/26 02:19:40;;;;;;;;;;;;;;;6.78;nan;100973.00;5044632;28;19921;-83
2023/11/26 02:22:07;;;;;;;;;;;;;;;6.74;nan;100977.16;5043340;28;19972;-83
2023/11/26 02:24:46;;;;;;;;;;;;;;;6.74;nan;100969.16;5041152;28;20450;-83
2023/11/26 02:27:12;;;;;;;;;;;;;;;6.76;nan;100969.75;5043939;28;19931;-83
2023/11/26 02:29:38;;;;;;;;;;;;;;;6.75;nan;100977.97;5042795;28;19921;-82
2023/11/26 02:32:04;;;;;;;;;;;;;;;6.76;nan;100977.75;5041553;28;19928;-83
2023/11/26 02:34:29;;;;;;;;;;;;;;;6.78;nan;100986.34;5038151;28;19925;-83
2023/11/26 02:36:55;;;;;;;;;;;;;;;6.81;nan;100985.06;5044199;28;19924;-84
2023/11/26 02:39:20;;;;;;;;;;;;;;;6.79;nan;100990.63;5042834;28;20012;-84
2023/11/26 02:41:46;;;;;;;;;;;;;;;6.77;nan;100989.22;5045885;28;19951;-83
2023/11/26 02:44:11;;;;;;;;;;;;;;;6.74;nan;100985.13;5043333;28;20714;-83
2023/11/26 02:46:36;;;;;;;;;;;;;;;6.74;nan;100989.66;5041899;28;19921;-83
2023/11/26 02:49:03;;;;;;;;;;;;;;;6.71;nan;100993.56;5049239;28;19920;-83
2023/11/26 02:51:28;;;;;;;;;;;;;;;6.70;nan;100996.44;5038870;28;19921;-83
2023/11/26 02:53:53;;;;;;;;;;;;;;;6.67;nan;100997.69;5043041;28;20269;-83
2023/11/26 02:56:19;;;;;;;;;;;;;;;6.65;nan;100999.78;5041274;28;19921;-84
2023/11/26 02:58:44;;;;;;;;;;;;;;;6.64;nan;100996.28;5045809;28;20055;-82
2023/11/26 03:01:19;;;;;;;;;;;;;;;6.63;nan;100999.13;5038618;28;19921;-83
2023/11/26 03:03:47;;;;;;;;;;;;;;;6.63;nan;100999.13;5046897;28;19921;-83
2023/11/26 03:06:15;;;;;;;;;;;;;;;6.65;nan;101002.44;5041436;28;19975;-84
2023/11/26 03:08:43;;;;;;;;;;;;;;;6.65;nan;101003.25;5047826;28;20006;-83
2023/11/26 03:13:52;;;;;;;;;;;;;;;6.63;nan;101007.13;5040379;28;20297;-83
2023/11/26 03:16:17;;;;;;;;;;;;;;;6.59;nan;101004.09;5044009;28;19925;-83
2023/11/26 03:18:42;;;;;;;;;;;;;;;6.60;nan;101015.56;5038356;28;19925;-83
2023/11/26 03:21:15;;;;;;;;;;;;;;;6.61;nan;101014.53;5046922;28;19921;-83
2023/11/26 03:23:41;;;;;;;;;;;;;;;6.60;nan;101013.69;5045264;28;20015;-84
2023/11/26 03:26:06;;;;;;;;;;;;;;;6.59;nan;101016.59;5044952;28;20013;-83
2023/11/26 03:28:32;;;;;;;;;;;;;;;6.58;nan;101017.63;5044693;28;19929;-83
2023/11/26 03:30:57;;;;;;;;;;;;;;;6.58;nan;101015.78;5024735;28;19984;-83
2023/11/26 03:33:27;;;;;;;;;;;;;;;6.58;nan;101025.59;5037900;28;20039;-83
2023/11/26 03:35:52;;;;;;;;;;;;;;;6.60;nan;101018.22;5038388;28;19917;-84
2023/11/26 03:38:18;;;;;;;;;;;;;;;6.60;nan;101023.53;5043879;28;19928;-83
2023/11/26 03:40:43;;;;;;;;;;;;;;;6.61;nan;101023.31;5044032;28;19932;-83
2023/11/26 03:43:10;;;;;;;;;;;;;;;6.61;nan;101025.16;5038273;28;20428;-83
2023/11/26 03:45:36;;;;;;;;;;;;;;;6.63;nan;101028.44;5040708;28;20657;-83
2023/11/26 03:48:01;;;;;;;;;;;;;;;6.61;nan;101022.50;5041776;28;19917;-83
2023/11/26 03:50:28;;;;;;;;;;;;;;;6.59;nan;101030.72;5038875;28;20456;-82
2023/11/26 03:52:55;;;;;;;;;;;;;;;6.57;nan;101034.63;5041693;28;20003;-83
2023/11/26 03:55:20;;;;;;;;;;;;;;;6.55;nan;101034.84;5040747;28;19921;-83
2023/11/26 03:57:46;;;;;;;;;;;;;;;6.57;nan;101035.44;5038073;28;19925;-83
2023/11/26 04:00:12;;;;;;;;;;;;;;;6.60;nan;101035.00;5043048;28;19920;-83
2023/11/26 04:02:38;;;;;;;;;;;;;;;6.62;nan;101042.78;5021653;28;20349;-83
2023/11/26 04:05:04;;;;;;;;;;;;;;;6.62;nan;101040.13;5047596;28;19917;-83
2023/11/26 04:07:31;;;;;;;;;;;;;;;6.63;nan;101039.06;5041528;28;19925;-83
2023/11/26 04:09:57;;;;;;;;;;;;;;;6.64;nan;101036.22;5041506;28;19971;-83
2023/11/26 04:12:23;;;;;;;;;;;;;;;6.67;nan;101045.63;5043293;28;19921;-83
2023/11/26 04:14:53;;;;;;;;;;;;;;;6.66;nan;101044.00;5036718;28;19921;-83
2023/11/26 04:17:19;;;;;;;;;;;;;;;6.65;nan;101040.53;5043117;28;19924;-83
2023/11/26 04:19:44;;;;;;;;;;;;;;;6.64;nan;101046.03;5043364;28;19921;-83
2023/11/26 04:22:09;;;;;;;;;;;;;;;6.62;nan;101058.75;5044620;28;20384;-83
2023/11/26 04:24:35;;;;;;;;;;;;;;;6.59;nan;101052.00;5039912;28;19917;-83
2023/11/26 04:27:01;;;;;;;;;;;;;;;6.57;nan;101055.91;5042994;28;19916;-82
2023/11/26 04:29:26;;;;;;;;;;;;;;;6.56;nan;101062.28;5035729;28;20651;-83
2023/11/26 04:31:52;;;;;;;;;;;;;;;6.55;nan;101057.97;5040719;28;20412;-83
2023/11/26 04:34:17;;;;;;;;;;;;;;;6.53;nan;101062.72;5039305;28;19974;-82
2023/11/26 04:36:43;;;;;;;;;;;;;;;6.50;nan;101058.63;5040641;28;20047;-82
2023/11/26 04:39:08;;;;;;;;;;;;;;;6.49;nan;101064.97;5041280;28;19920;-83
2023/11/26 04:41:33;;;;;;;;;;;;;;;6.48;nan;101062.53;5034837;28;19971;-82
2023/11/26 04:43:59;;;;;;;;;;;;;;;6.46;nan;101064.56;5043962;28;19978;-82
2023/11/26 04:46:24;;;;;;;;;;;;;;;6.48;nan;101073.19;5036765;28;19921;-83
2023/11/26 04:48:49;;;;;;;;;;;;;;;6.48;nan;101075.84;5039953;28;19928;-82
2023/11/26 04:51:15;;;;;;;;;;;;;;;6.48;nan;101078.50;5037460;28;20472;-82
2023/11/26 04:53:41;;;;;;;;;;;;;;;6.46;nan;101080.53;5042732;28;19948;-82
2023/11/26 04:56:07;;;;;;;;;;;;;;;6.43;nan;101072.97;5045509;28;19923;-82
2023/11/26 04:58:32;;;;;;;;;;;;;;;6.39;nan;101080.59;5041338;28;19924;-82
2023/11/26 05:00:59;;;;;;;;;;;;;;;6.35;nan;101085.53;5041834;28;19916;-82
2023/11/26 05:03:25;;;;;;;;;;;;;;;6.34;nan;101086.56;5039942;28;20292;-82
2023/11/26 05:05:50;;;;;;;;;;;;;;;6.31;nan;101083.50;5041247;28;20000;-82
2023/11/26 05:08:15;;;;;;;;;;;;;;;6.27;nan;101088.41;5029544;28;19916;-82
2023/11/26 05:10:41;;;;;;;;;;;;;;;6.25;nan;101085.16;5041192;28;20023;-82
2023/11/26 05:13:06;;;;;;;;;;;;;;;6.22;nan;101082.91;5047554;28;19917;-82
2023/11/26 05:15:32;;;;;;;;;;;;;;;6.18;nan;101087.03;5044628;28;20028;-83
2023/11/26 05:17:57;;;;;;;;;;;;;;;6.15;nan;101086.63;5046684;28;19999;-82
2023/11/26 05:20:22;;;;;;;;;;;;;;;6.10;nan;101089.91;5036402;28;19925;-82
2023/11/26 05:22:48;;;;;;;;;;;;;;;6.07;nan;101093.00;5037836;28;19921;-82
2023/11/26 05:25:14;;;;;;;;;;;;;;;6.03;nan;101086.47;5039727;28;19951;-82
2023/11/26 05:27:39;;;;;;;;;;;;;;;6.01;nan;101094.66;5036402;28;20410;-82
2023/11/26 05:30:06;;;;;;;;;;;;;;;5.98;nan;101099.59;5043525;28;19921;-82
2023/11/26 05:32:32;;;;;;;;;;;;;;;5.95;nan;101095.50;5039499;28;20683;-81
2023/11/26 05:34:58;;;;;;;;;;;;;;;5.91;nan;101094.25;5039635;28;19917;-81
2023/11/26 05:37:23;;;;;;;;;;;;;;;5.88;nan;101096.50;5038558;28;20377;-81
2023/11/26 05:39:49;;;;;;;;;;;;;;;5.81;nan;101093.03;5039221;28;19971;-82
2023/11/26 05:42:14;;;;;;;;;;;;;;;5.78;nan;101102.25;5043149;28;19917;-81
2023/11/26 05:44:39;;;;;;;;;;;;;;;5.74;nan;101104.53;5034718;28;20316;-81
2023/11/26 05:47:05;;;;;;;;;;;;;;;5.72;nan;101111.03;5040566;28;19923;-81
2023/11/26 05:49:30;;;;;;;;;;;;;;;5.67;nan;101114.31;5044508;28;19921;-81
2023/11/26 05:51:56;;;;;;;;;;;;;;;5.66;nan;101117.19;5047199;28;19920;-81
2023/11/26 05:54:23;;;;;;;;;;;;;;;5.61;nan;101120.47;5040754;28;19948;-82
2023/11/26 05:56:50;;;;;;;;;;;;;;;5.61;nan;101123.13;5045815;28;20012;-81
2023/11/26 05:59:15;;;;;;;;;;;;;;;5.59;nan;101125.19;5046322;28;19948;-81
2023/11/26 06:01:41;;;;;;;;;;;;;;;5.59;nan;101121.72;5042300;28;20393;-81
2023/11/26 06:04:07;;;;;;;;;;;;;;;5.55;nan;101123.94;5041601;28;19925;-81
2023/11/26 06:06:32;;;;;;;;;;;;;;;5.53;nan;101127.84;5038868;28;21582;-81
2023/11/26 06:08:58;;;;;;;;;;;;;;;5.50;nan;101123.75;5044272;28;19916;-81
2023/11/26 06:11:23;;;;;;;;;;;;;;;5.47;nan;101118.84;5040004;28;20408;-81
2023/11/26 06:13:48;;;;;;;;;;;;;;;5.45;nan;101124.38;5035994;28;19916;-81
2023/11/26 06:16:14;;;;;;;;;;;;;;;5.42;nan;101123.97;5043008;28;19971;-81
2023/11/26 06:18:39;;;;;;;;;;;;;;;5.39;nan;101122.53;5058984;28;20506;-81
2023/11/26 06:21:04;;;;;;;;;;;;;;;5.38;nan;101125.38;5024717;28;20379;-82
2023/11/26 06:23:30;;;;;;;;;;;;;;;5.37;nan;101134.38;5037890;28;19944;-81
2023/11/26 06:25:56;;;;;;;;;;;;;;;5.35;nan;101131.91;5040180;28;19923;-81
2023/11/26 06:28:21;;;;;;;;;;;;;;;5.34;nan;101138.25;5042088;28;19924;-81
2023/11/26 06:30:47;;;;;;;;;;;;;;;5.34;nan;101134.78;5040758;28;20024;-80
2023/11/26 06:33:12;;;;;;;;;;;;;;;5.32;nan;101136.84;5040876;28;19928;-81
2023/11/26 06:35:37;;;;;;;;;;;;;;;5.30;nan;101144.19;5040879;28;19924;-80
2023/11/26 06:38:03;;;;;;;;;;;;;;;5.26;nan;101142.97;5044450;28;19928;-81
2023/11/26 06:40:28;;;;;;;;;;;;;;;5.22;nan;101150.53;5045202;28;19932;-81
2023/11/26 06:42:54;;;;;;;;;;;;;;;5.19;nan;101150.91;5046861;28;19921;-81
2023/11/26 06:45:21;;;;;;;;;;;;;;;5.20;nan;101154.38;5036986;28;19956;-81
2023/11/26 06:47:47;;;;;;;;;;;;;;;5.18;nan;101149.28;5045108;28;19962;-81
2023/11/26 06:50:12;;;;;;;;;;;;;;;5.18;nan;101159.09;5041949;28;19972;-81
2023/11/26 06:52:38;;;;;;;;;;;;;;;5.15;nan;101157.66;5040604;28;20055;-81
2023/11/26 06:55:05;;;;;;;;;;;;;;;5.14;nan;101167.47;5040556;28;19948;-81
2023/11/26 06:57:32;;;;;;;;;;;;;;;5.15;nan;101169.09;5036631;28;20479;-81
2023/11/26 06:59:58;;;;;;;;;;;;;;;5.14;nan;101167.47;5042155;28;19968;-81
2023/11/26 07:02:24;;;;;;;;;;;;;;;5.14;nan;101172.78;5043624;28;19924;-81
2023/11/26 07:04:49;;;;;;;;;;;;;;;5.13;nan;101173.81;5043892;28;19931;-81
2023/11/26 07:07:17;;;;;;;;;;;;;;;5.12;nan;101174.81;5041857;28;19974;-81
2023/11/26 07:09:42;;;;;;;;;;;;;;;5.08;nan;101178.09;5039979;28;19929;-81
2023/11/26 07:12:08;;;;;;;;;;;;;;;5.05;nan;101183.81;5039415;28;19921;-81
2023/11/26 07:14:34;;;;;;;;;;;;;;;5.05;nan;101176.66;5037578;28;20487;-81
2023/11/26 07:16:59;;;;;;;;;;;;;;;5.04;nan;101188.31;5043441;28;20484;-81
2023/11/26 07:19:24;;;;;;;;;;;;;;;5.05;nan;101183.81;5035864;28;20423;-81
2023/11/26 07:21:50;;;;;;;;;;;;;;;5.06;nan;101183.59;5041307;28;20428;-80
2023/11/26 07:24:15;;;;;;;;;;;;;;;5.08;nan;101184.22;5048042;28;20443;-81
2023/11/26 07:26:40;;;;;;;;;;;;;;;5.07;nan;101185.25;5040604;28;20436;-80
2023/11/26 07:29:06;;;;;;;;;;;;;;;5.07;nan;101181.75;5040528;28;20332;-81
2023/11/26 07:31:32;;;;;;;;;;;;;;;5.05;nan;101184.63;5041804;28;20431;-81
2023/11/26 07:33:57;;;;;;;;;;;;;;;5.07;nan;101187.91;5044373;28;20011;-81
2023/11/26 07:36:23;;;;;;;;;;;;;;;5.11;nan;101183.81;5039693;28;20015;-80
2023/11/26 07:39:01;;;;;;;;;;;;;;;5.14;nan;101196.69;5043551;28;19952;-81
2023/11/26 07:41:26;;;;;;;;;;;;;;;5.18;nan;101185.66;5028987;28;21220;-81
2023/11/26 07:43:52;;;;;;;;;;;;;;;5.21;nan;101198.56;5039663;28;19963;-81
2023/11/26 07:46:18;;;;;;;;;;;;;;;5.24;nan;101196.31;5039818;28;20377;-81
2023/11/26 07:48:45;;;;;;;;;;;;;;;5.27;nan;101193.25;5040088;28;20368;-81
2023/11/26 07:51:10;;;;;;;;;;;;;;;5.32;nan;101198.75;5034281;28;19925;-81
2023/11/26 07:53:37;;;;;;;;;;;;;;;5.36;nan;101196.50;5039293;28;21285;-81
2023/11/26 07:56:03;;;;;;;;;;;;;;;5.40;nan;101198.59;5042417;28;19928;-81
2023/11/26 07:58:31;;;;;;;;;;;;;;;5.42;nan;101201.03;5041364;28;19917;-82
2023/11/26 08:00:57;;;;;;;;;;;;;;;5.43;nan;101203.50;5038687;28;20064;-81
2023/11/26 08:03:25;;;;;;;;;;;;;;;5.47;nan;101210.03;5038632;28;20638;-82
2023/11/26 08:05:50;;;;;;;;;;;;;;;5.51;nan;101205.13;5044849;28;19924;-81
2023/11/26 08:08:20;;;;;;;;;;;;;;;5.51;nan;101210.44;5038393;28;19917;-81
2023/11/26 08:10:48;;;;;;;;;;;;;;;5.55;nan;101206.34;5038902;28;19955;-81
2023/11/26 08:13:13;;;;;;;;;;;;;;;5.62;nan;101207.19;5034042;28;19923;-81
2023/11/26 08:15:38;;;;;;;;;;;;;;;5.69;nan;101200.00;5041908;28;19924;-81
2023/11/26 08:18:06;;;;;;;;;;;;;;;5.76;nan;101211.47;5037735;28;20016;-81
2023/11/26 08:20:31;;;;;;;;;;;;;;;5.82;nan;101206.34;5039072;28;19956;-81
2023/11/26 08:23:01;;;;;;;;;;;;;;;5.85;nan;101213.91;5037791;28;20510;-81
2023/11/26 08:25:36;;;;;;;;;;;;;;;5.91;42.11;101211.28;5063290;27;20472;-79
2023/11/26 08:28:02;;;;;;;;;;;;;;;6.01;41.84;101210.88;5059280;28;19963;-79
2023/11/26 08:30:39;;;;;;;;;;;;;;;6.08;42.06;101209.00;5061453;28;19920;-80
2023/11/26 08:33:05;;;;;;;;;;;;;;;6.20;42.01;101215.34;5062246;28;19920;-80
2023/11/26 08:35:31;;;;;;;;;;;;;;;6.26;41.93;101209.19;5057596;28;19924;-80
2023/11/26 08:37:56;;;;;;;;;;;;;;;6.35;41.50;101215.94;5058408;28;19916;-80
2023/11/26 08:40:22;;;;;;;;;;;;;;;6.46;41.62;101218.97;5055462;28;19925;-79
2023/11/26 08:42:48;;;;;;;;;;;;;;;6.53;41.28;101219.78;5056932;28;20496;-80
2023/11/26 08:45:13;;;;;;;;;;;;;;;6.59;41.39;101221.59;5058058;28;19940;-80
2023/11/26 08:47:42;;;;;;;;;;;;;;;6.65;41.33;101226.09;5059007;28;20325;-80
2023/11/26 08:50:08;;;;;;;;;;;;;;;6.73;41.36;101217.84;5055901;28;19974;-80
2023/11/26 08:52:34;;;;;;;;;;;;;;;6.85;41.25;101226.00;5057334;28;19924;-80
2023/11/26 08:55:00;;;;;;;;;;;;;;;6.92;40.95;101224.94;5061958;28;19978;-80
2023/11/26 08:57:26;;;;;;;;;;;;;;;6.98;41.30;101229.41;5057993;28;19920;-80
2023/11/26 08:59:51;;;;;;;;;;;;;;;7.03;41.01;101226.13;5059960;28;20566;-80
2023/11/26 09:02:16;;;;;;;;;;;;;;;7.16;41.24;101227.88;5056589;28;19924;-80
2023/11/26 09:04:42;;;;;;;;;;;;;;;7.20;40.90;101224.59;5057322;28;20003;-80
2023/11/26 09:07:07;;;;;;;;;;;;;;;7.23;40.63;101232.16;5060212;28;19917;-80
2023/11/26 09:09:33;;;;;;;;;;;;;;;7.29;40.80;101225.16;5061177;28;19998;-80
2023/11/26 09:11:58;;;;;;;;;;;;;;;7.38;40.97;101229.22;5060878;28;19928;-79
2023/11/26 09:14:23;;;;;;;;;;;;;;;7.45;40.54;101229.16;5056016;28;20470;-80
2023/11/26 09:16:50;;;;;;;;;;;;;;;7.50;40.28;101230.13;5057870;28;19927;-80
2023/11/26 09:19:16;;;;;;;;;;;;;;;7.50;40.43;101232.78;5056357;28;19920;-80
2023/11/26 09:21:46;;;;;;;;;;;;;;;7.52;40.78;101225.41;5056135;28;19970;-80
2023/11/26 09:24:12;;;;;;;;;;;;;;;7.56;40.35;101231.97;5058149;28;19925;-80
2023/11/26 09:26:38;;;;;;;;;;;;;;;7.58;40.07;101232.56;5056683;28;19970;-80
2023/11/26 09:29:03;;;;;;;;;;;;;;;7.60;40.33;101220.84;5060718;28;19952;-80
2023/11/26 09:31:29;;;;;;;;;;;;;;;7.66;40.42;101227.97;5057118;28;19917;-80
2023/11/26 09:33:55;;;;;;;;;;;;;;;7.71;40.52;101223.59;5059809;28;20563;-80
2023/11/26 09:36:21;;;;;;;;;;;;;;;7.80;40.34;101229.50;5046751;28;20115;-80
2023/11/26 09:38:46;;;;;;;;;;;;;;;7.84;40.22;101234.19;5040029;28;20381;-80
2023/11/26 09:41:17;;;;;;;;;;;;;;;7.91;39.67;101228.00;5046016;28;19925;-80
2023/11/26 09:43:43;;;;;;;;;;;;;;;7.91;40.02;101238.66;5076012;28;20625;-79
2023/11/26 09:46:09;;;;;;;;;;;;;;;7.89;40.18;101230.84;5048667;28;20006;-80
2023/11/26 09:48:34;;;;;;;;;;;;;;;7.96;40.02;101220.97;5052739;28;20779;-80
2023/11/26 09:51:02;;;;;;;;;;;;;;;8.10;40.00;101217.13;5045858;28;19943;-80
2023/11/26 09:53:28;;;;;;;;;;;;;;;8.25;40.07;101218.63;5051058;28;19924;-80
2023/11/26 09:55:54;;;;;;;;;;;;;;;8.35;39.91;101224.31;5046519;28;20537;-80
2023/11/26 09:58:19;;;;;;;;;;;;;;;8.46;40.09;101223.59;5050042;28;19966;-79
2023/11/26 10:00:45;;;;;;;;;;;;;;;8.59;39.60;101222.59;5047180;28;19925;-81
2023/11/26 10:03:10;;;;;;;;;;;;;;;8.68;39.76;101232.78;5047157;28;19917;-80
2023/11/26 10:05:36;;;;;;;;;;;;;;;8.77;39.51;101234.09;5044191;28;19929;-81
2023/11/26 10:08:02;;;;;;;;;;;;;;;8.82;39.29;101235.28;5044747;28;19964;-80
2023/11/26 10:10:28;;;;;;;;;;;;;;;8.91;39.18;101228.59;5045841;28;19966;-81
2023/11/26 10:12:55;;;;;;;;;;;;;;;8.94;39.03;101231.63;5048672;28;20381;-80
2023/11/26 10:15:21;;;;;;;;;;;;;;;8.91;39.19;101232.06;5047913;28;20396;-81
2023/11/26 10:18:08;;;;;;;;;;;;;;;9.02;39.38;101246.53;5043836;28;20697;-80
2023/11/26 10:20:45;;;;;;;;;;;;;;;9.15;39.45;101246.34;5054913;28;20303;-80
2023/11/26 10:23:13;;;;;;;;;;;;;;;9.31;39.43;101244.91;5047964;28;19924;-81
2023/11/26 10:25:42;;;;;;;;;;;;;;;9.41;39.19;101241.69;5045774;28;21914;-81
2023/11/26 10:28:15;;;;;;;;;;;;;;;9.48;38.95;101245.06;5048597;28;20482;-81
2023/11/26 10:30:40;;;;;;;;;;;;;;;9.51;38.82;101244.59;5049162;28;20369;-81
2023/11/26 10:33:07;;;;;;;;;;;;;;;9.49;38.59;101249.38;5047218;28;20449;-81
2023/11/26 10:35:56;;;;;;;;;;;;;;;9.38;38.53;101251.81;5048226;28;19928;-81
2023/11/26 10:38:24;;;;;;;;;;;;;;;9.19;38.56;101242.19;5046748;28;20491;-81
2023/11/26 10:40:50;;;;;;;;;;;;;;;9.06;38.72;101245.84;5050154;28;19917;-81
2023/11/26 10:43:15;;;;;;;;;;;;;;;8.94;38.83;101244.16;5046290;28;19970;-80
2023/11/26 10:45:44;;;;;;;;;;;;;;;8.83;38.96;101240.41;5050163;28;19921;-81
2023/11/26 10:48:10;;;;;;;;;;;;;;;8.80;39.52;101243.53;5045684;28;19921;-81
2023/11/26 10:50:38;;;;;;;;;;;;;;;8.76;39.15;101242.31;5045906;28;19932;-81
2023/11/26 10:53:05;;;;;;;;;;;;;;;8.70;39.64;101246.72;5044407;28;19921;-81
2023/11/26 10:55:34;;;;;;;;;;;;;;;8.64;39.32;101239.59;5078146;28;20315;-81
2023/11/26 10:58:06;;;;;;;;;;;;;;;8.57;39.05;101236.16;5043275;28;19959;-81
2023/11/26 11:00:33;;;;;;;;;;;;;;;8.54;39.53;101236.63;5044462;28;19917;-81
2023/11/26 11:02:59;;;;;;;;;;;;;;;8.52;39.55;101238.69;5044477;28;19974;-82
2023/11/26 11:05:24;;;;;;;;;;;;;;;8.51;39.52;101233.59;5044515;28;20392;-81
2023/11/26 11:07:51;;;;;;;;;;;;;;;8.47;39.57;101239.38;5046400;28;19920;-81
2023/11/26 11:10:37;;;;;;;;;;;;;;;8.42;39.77;101236.53;5046398;28;19921;-81
2023/11/26 11:13:12;;;;;;;;;;;;;;;8.42;39.93;101241.06;5045239;28;20385;-81
2023/11/26 11:15:41;;;;;;;;;;;;;;;8.43;39.80;101237.34;5047125;28;19928;-82
2023/11/26 11:18:25;;;;;;;;;;;;;;;8.45;39.88;101244.13;5047217;28;20007;-81
2023/11/26 11:21:01;;;;;;;;;;;;;;;8.38;39.74;101240.69;5046391;28;20278;-81
2023/11/26 11:23:33;;;;;;;;;;;;;;;8.35;39.57;101235.81;5044096;28;19924;-81
2023/11/26 11:26:00;;;;;;;;;;;;;;;8.29;39.61;101236.66;5046377;28;19917;-81
2023/11/26 11:28:40;;;;;;;;;;;;;;;8.33;39.40;101235.19;5046784;28;19974;-81
2023/11/26 11:31:07;;;;;;;;;;;;;;;8.32;39.56;101230.06;5046659;28;19920;-81
2023/11/26 11:33:32;;;;;;;;;;;;;;;8.38;39.88;101230.00;5046751;28;20424;-81
2023/11/26 11:35:58;;;;;;;;;;;;;;;8.52;39.58;101235.22;5043640;28;19923;-81
2023/11/26 11:38:26;;;;;;;;;;;;;;;8.52;39.45;101236.03;5042848;28;19917;-81
2023/11/26 11:41:13;;;;;;;;;;;;;;;8.53;39.41;101237.66;5047800;28;20300;-81
2023/11/26 11:43:39;;;;;;;;;;;;;;;8.49;39.22;101247.16;5043840;28;19924;-81
2023/11/26 11:46:34;;;;;;;;;;;;;;;8.47;39.64;101238.56;5044887;28;19923;-82
2023/11/26 11:48:59;;;;;;;;;;;;;;;8.49;39.27;101236.47;5046563;28;19916;-80
2023/11/26 11:51:31;;;;;;;;;;;;;;;8.49;39.25;101231.13;5048567;28;19928;-81
2023/11/26 11:54:14;;;;;;;;;;;;;;;8.52;39.59;101225.34;5048005;28;19929;-81
2023/11/26 11:56:40;;;;;;;;;;;;;;;8.57;39.40;101224.69;5045032;28;19924;-80
2023/11/26 11:59:06;;;;;;;;;;;;;;;8.59;39.20;101218.06;5042966;28;19921;-82
2023/11/26 12:01:34;;;;;;;;;;;;;;;8.68;39.74;101221.28;5044173;28;20416;-81
2023/11/26 12:04:02;;;;;;;;;;;;;;;8.78;39.41;101216.19;5046057;28;19916;-82
2023/11/26 12:06:27;;;;;;;;;;;;;;;8.94;39.43;101214.75;5045134;28;19961;-81
2023/11/26 12:08:53;;;;;;;;;;;;;;;9.04;39.36;101212.38;5043264;28;19925;-82
2023/11/26 12:11:19;;;;;;;;;;;;;;;9.11;38.83;101213.09;5043427;28;19929;-81
2023/11/26 12:13:44;;;;;;;;;;;;;;;9.15;39.15;101216.94;5042461;28;20469;-81
2023/11/26 12:16:09;;;;;;;;;;;;;;;9.21;38.95;101213.38;5045859;28;20058;-81
2023/11/26 12:18:35;;;;;;;;;;;;;;;9.21;38.90;101213.38;5043598;28;21315;-82
2023/11/26 12:21:01;;;;;;;;;;;;;;;9.19;38.91;101215.47;5044137;28;19921;-81
2023/11/26 12:23:29;;;;;;;;;;;;;;;9.17;38.93;101214.06;5043382;28;19917;-82
2023/11/26 12:25:56;;;;;;;;;;;;;;;9.09;38.77;101209.84;5044773;28;19960;-81
2023/11/26 12:28:21;;;;;;;;;;;;;;;9.04;39.10;101212.38;5045981;28;19921;-81
2023/11/26 12:30:54;;;;;;;;;;;;;;;9.03;39.26;101200.06;5045530;28;19940;-81
2023/11/26 12:33:20;;;;;;;;;;;;;;;9.04;39.08;101196.34;5043492;28;19917;-82
2023/11/26 12:35:46;;;;;;;;;;;;;;;9.03;38.94;101189.38;5044077;28;20189;-82
2023/11/26 12:38:12;;;;;;;;;;;;;;;9.04;39.02;101191.81;5044284;28;19967;-82
2023/11/26 12:40:37;;;;;;;;;;;;;;;9.01;38.72;101194.94;5043352;28;20779;-82
2023/11/26 12:43:03;;;;;;;;;;;;;;;8.92;39.53;101196.28;5044885;28;20005;-81
2023/11/26 12:45:28;;;;;;;;;;;;;;;8.94;39.51;101199.53;5042180;28;19917;-82
2023/11/26 12:47:54;;;;;;;;;;;;;;;8.95;38.73;101189.66;5042867;28;19956;-82
2023/11/26 12:50:21;;;;;;;;;;;;;;;8.91;38.95;101193.84;5046286;28;19913;-82
2023/11/26 12:52:47;;;;;;;;;;;;;;;8.83;39.51;101191.50;5040706;28;20765;-82
2023/11/26 12:55:14;;;;;;;;;;;;;;;8.84;39.54;101193.94;5042049;28;19920;-82
2023/11/26 12:57:39;;;;;;;;;;;;;;;8.83;39.52;101188.81;5045443;28;19928;-81
2023/11/26 13:00:08;;;;;;;;;;;;;;;8.79;39.34;101183.09;5044280;28;20384;-82